createdAt,value
2018-08-31T00:02:44.074Z,19.85
2018-08-31T00:05:36.707Z,19.55
2018-08-31T00:09:15.473Z,20.55
2018-08-31T00:11:55.338Z,20.75
2018-08-31T00:14:24.085Z,19.82
2018-08-31T00:16:52.995Z,19.95
2018-08-31T00:19:21.830Z,19.25
2018-08-31T00:21:50.496Z,18.75
2018-08-31T00:24:30.777Z,22.60
2018-08-31T00:27:10.553Z,24.77
2018-08-31T00:29:51.447Z,26.48
2018-08-31T00:33:33.920Z,25.72
2018-08-31T00:37:21.694Z,26.65
2018-08-31T00:39:58.925Z,28.25
2018-08-31T00:42:56.795Z,29.32
2018-08-31T00:45:34.408Z,32.20
2018-08-31T00:48:04.146Z,32.90
2018-08-31T00:50:33.079Z,31.95
2018-08-31T00:53:02.828Z,33.83
2018-08-31T00:55:32.105Z,36.23
2018-08-31T00:58:01.774Z,34.38
2018-08-31T01:00:30.668Z,34.53
2018-08-31T01:02:59.588Z,35.83
2018-08-31T01:05:28.358Z,37.98
2018-08-31T01:07:57.030Z,39.60
2018-08-31T01:10:26.090Z,37.13
2018-08-31T01:12:57.422Z,41.18
2018-08-31T01:15:26.254Z,41.95
2018-08-31T01:17:57.260Z,41.73
2018-08-31T01:20:26.958Z,39.33
2018-08-31T01:23:00.377Z,38.55
2018-08-31T01:25:30.178Z,36.60
2018-08-31T01:28:03.178Z,34.38
2018-08-31T01:30:32.888Z,33.95
2018-08-31T01:33:05.898Z,35.15
2018-08-31T01:35:34.682Z,35.20
2018-08-31T01:38:05.189Z,34.20
2018-08-31T01:40:37.072Z,33.30
2018-08-31T01:43:07.323Z,29.63
2018-08-31T01:45:40.896Z,30.25
2018-08-31T01:48:09.656Z,31.00
2018-08-31T01:50:50.522Z,31.97
2018-08-31T01:53:22.016Z,30.00
2018-08-31T01:55:50.675Z,31.57
2018-08-31T01:58:23.190Z,32.10
2018-08-31T02:00:56.424Z,33.78
2018-08-31T02:03:25.112Z,32.20
2018-08-31T02:05:57.428Z,34.03
2018-08-31T02:08:26.084Z,35.23
2018-08-31T02:10:56.496Z,34.10
2018-08-31T02:13:26.115Z,32.90
2018-08-31T02:15:59.653Z,35.10
2018-08-31T02:18:32.082Z,35.35
2018-08-31T02:21:00.699Z,34.60
2018-08-31T02:23:32.491Z,36.73
2018-08-31T02:26:01.186Z,36.20
2018-08-31T02:28:34.046Z,35.23
2018-08-31T02:31:03.936Z,35.28
2018-08-31T02:33:36.654Z,33.78
2018-08-31T02:36:06.407Z,32.40
2018-08-31T02:38:36.797Z,33.08
2018-08-31T02:41:05.658Z,31.57
2018-08-31T02:46:22.641Z,32.90
2018-08-31T02:48:57.409Z,34.08
2018-08-31T02:51:26.142Z,33.18
2018-08-31T02:53:58.013Z,33.02
2018-08-31T02:56:26.725Z,32.15
2018-08-31T02:58:58.307Z,31.25
2018-08-31T03:01:27.250Z,30.70
2018-08-31T03:03:59.034Z,30.25
2018-08-31T03:06:27.766Z,29.75
2018-08-31T03:08:57.512Z,28.15
2018-08-31T03:11:26.453Z,30.25
2018-08-31T03:13:56.997Z,26.27
2018-08-31T03:16:25.625Z,25.72
2018-08-31T03:18:56.868Z,24.82
2018-08-31T03:21:26.768Z,23.30
2018-08-31T03:23:55.427Z,24.45
2018-08-31T03:26:24.092Z,23.57
2018-08-31T03:28:54.304Z,22.35
2018-08-31T03:31:22.977Z,22.17
2018-08-31T03:33:55.759Z,22.97
2018-08-31T03:36:24.598Z,23.50
2018-08-31T03:38:54.432Z,23.15
2018-08-31T03:41:23.042Z,22.45
2018-08-31T03:43:53.138Z,20.80
2018-08-31T03:46:22.274Z,18.20
2018-08-31T03:48:52.274Z,17.65
2018-08-31T03:51:21.836Z,17.90
2018-08-31T03:53:52.880Z,17.62
2018-08-31T03:56:21.552Z,16.30
2018-08-31T03:58:53.265Z,16.87
2018-08-31T04:01:21.963Z,15.95
2018-08-31T04:03:50.671Z,16.80
2018-08-31T04:06:24.924Z,16.00
2018-08-31T04:08:53.513Z,15.18
2018-08-31T04:11:24.217Z,15.90
2018-08-31T04:13:53.009Z,15.85
2018-08-31T04:16:26.913Z,15.00
2018-08-31T04:18:55.802Z,15.45
2018-08-31T04:21:26.465Z,15.40
2018-08-31T04:25:26.424Z,15.28
2018-08-31T04:27:55.215Z,15.70
2018-08-31T04:30:24.002Z,16.73
2018-08-31T04:32:52.708Z,17.05
2018-08-31T04:35:23.149Z,17.80
2018-08-31T04:37:51.739Z,18.37
2018-08-31T04:40:23.295Z,17.32
2018-08-31T04:42:52.094Z,18.20
2018-08-31T04:45:23.391Z,19.70
2018-08-31T04:47:52.355Z,18.67
2018-08-31T04:51:50.386Z,19.77
2018-08-31T04:54:23.660Z,20.30
2018-08-31T04:56:54.079Z,19.67
2018-08-31T04:59:33.571Z,20.75
2018-08-31T05:02:06.725Z,21.55
2018-08-31T05:04:35.417Z,22.42
2018-08-31T05:07:07.288Z,22.37
2018-08-31T05:09:43.859Z,22.20
2018-08-31T05:12:21.807Z,22.05
2018-08-31T05:14:51.804Z,20.35
2018-08-31T05:19:58.564Z,22.30
2018-08-31T05:22:30.034Z,22.23
2018-08-31T05:24:58.672Z,21.70
2018-08-31T05:27:30.958Z,23.97
2018-08-31T05:30:08.008Z,26.33
2018-08-31T05:32:38.783Z,22.95
2018-08-31T05:35:14.443Z,21.77
2018-08-31T05:37:43.570Z,20.48
2018-08-31T05:40:12.778Z,21.70
2018-08-31T05:42:43.274Z,21.70
2018-08-31T05:45:15.357Z,22.60
2018-08-31T05:47:43.981Z,22.35
2018-08-31T05:50:16.614Z,21.07
2018-08-31T05:52:45.426Z,21.30
2018-08-31T05:55:19.499Z,21.15
2018-08-31T05:57:48.128Z,21.42
2018-08-31T06:03:16.802Z,20.05
2018-08-31T06:05:49.455Z,20.70
2018-08-31T06:08:23.155Z,19.97
2018-08-31T06:10:53.676Z,20.02
2018-08-31T06:13:25.627Z,20.12
2018-08-31T06:15:55.716Z,19.85
2018-08-31T06:18:24.586Z,18.50
2018-08-31T06:20:53.384Z,17.35
2018-08-31T06:23:22.086Z,16.05
2018-08-31T06:25:51.020Z,15.85
2018-08-31T06:28:27.058Z,15.30
2018-08-31T06:30:55.768Z,15.33
2018-08-31T06:33:26.572Z,14.33
2018-08-31T06:35:55.788Z,13.48
2018-08-31T06:38:24.419Z,13.80
2018-08-31T06:40:53.397Z,13.28
2018-08-31T06:43:25.175Z,13.88
2018-08-31T06:45:53.965Z,13.08
2018-08-31T06:48:30.597Z,12.00
2018-08-31T06:51:07.770Z,11.20
2018-08-31T06:53:37.155Z,11.28
2018-08-31T06:59:39.807Z,10.65
2018-08-31T07:02:09.560Z,9.43
2018-08-31T07:04:38.304Z,9.55
2018-08-31T07:07:09.756Z,9.30
2018-08-31T07:09:38.829Z,9.43
2018-08-31T07:12:10.777Z,9.45
2018-08-31T07:14:39.485Z,9.23
2018-08-31T07:17:12.751Z,9.40
2018-08-31T07:19:41.591Z,10.13
2018-08-31T07:22:11.573Z,9.20
2018-08-31T07:24:40.490Z,9.78
2018-08-31T07:27:09.913Z,9.75
2018-08-31T07:29:39.743Z,9.63
2018-08-31T07:32:14.011Z,9.93
2018-08-31T07:34:48.386Z,9.13
2018-08-31T07:37:17.903Z,10.48
2018-08-31T07:39:48.295Z,11.38
2018-08-31T07:42:17.277Z,13.15
2018-08-31T07:44:50.347Z,13.28
2018-08-31T07:47:19.222Z,15.18
2018-08-31T07:49:48.032Z,14.33
2018-08-31T07:52:16.762Z,14.30
2018-08-31T07:54:45.654Z,13.53
2018-08-31T07:57:14.568Z,13.53
2018-08-31T07:59:44.457Z,13.93
2018-08-31T08:02:13.352Z,13.15
2018-08-31T08:04:42.173Z,12.45
2018-08-31T08:07:11.267Z,11.45
2018-08-31T08:09:40.044Z,11.78
2018-08-31T08:12:08.839Z,11.25
2018-08-31T08:14:43.094Z,11.85
2018-08-31T08:17:12.125Z,11.43
2018-08-31T08:19:41.188Z,11.43
2018-08-31T08:22:10.028Z,11.68
2018-08-31T08:24:39.857Z,10.90
2018-08-31T08:27:09.198Z,10.90
2018-08-31T08:29:38.111Z,11.63
2018-08-31T08:32:06.967Z,12.65
2018-08-31T08:34:37.697Z,13.58
2018-08-31T08:37:07.663Z,13.62
2018-08-31T08:39:36.971Z,14.30
2018-08-31T08:42:06.950Z,13.60
2018-08-31T08:44:35.809Z,12.95
2018-08-31T08:47:05.019Z,14.47
2018-08-31T08:49:33.752Z,14.47
2018-08-31T08:52:03.846Z,13.23
2018-08-31T08:54:32.540Z,13.45
2018-08-31T08:57:01.545Z,12.43
2018-08-31T08:59:30.313Z,12.28
2018-08-31T09:01:59.107Z,11.63
2018-08-31T09:04:27.825Z,11.97
2018-08-31T09:06:56.665Z,12.27
2018-08-31T09:09:25.902Z,12.33
2018-08-31T09:11:54.604Z,12.90
2018-08-31T09:14:23.487Z,12.63
2018-08-31T09:16:52.392Z,12.33
2018-08-31T09:19:21.147Z,11.50
2018-08-31T09:21:49.866Z,10.00
2018-08-31T09:24:20.073Z,10.28
2018-08-31T09:26:48.849Z,9.63
2018-08-31T09:29:19.341Z,9.78
2018-08-31T09:31:48.181Z,10.50
2018-08-31T09:34:20.811Z,11.15
2018-08-31T09:36:49.559Z,11.20
2018-08-31T09:41:53.474Z,11.83
2018-08-31T09:44:27.025Z,12.70
2018-08-31T09:46:56.126Z,13.62
2018-08-31T09:49:30.420Z,12.90
2018-08-31T09:51:59.326Z,12.43
2018-08-31T09:54:28.844Z,12.98
2018-08-31T09:57:10.261Z,12.75
2018-08-31T09:59:39.336Z,11.97
2018-08-31T10:02:17.738Z,12.15
2018-08-31T10:04:49.458Z,11.95
2018-08-31T10:07:18.286Z,14.00
2018-08-31T10:09:55.174Z,13.35
2018-08-31T10:12:24.913Z,11.80
2018-08-31T10:14:55.955Z,12.13
2018-08-31T10:17:30.800Z,12.73
2018-08-31T10:20:11.338Z,12.23
2018-08-31T10:22:40.212Z,11.68
2018-08-31T10:25:29.271Z,11.85
2018-08-31T10:27:59.856Z,12.00
2018-08-31T10:30:28.643Z,11.73
2018-08-31T10:32:58.384Z,11.60
2018-08-31T10:35:29.773Z,10.93
2018-08-31T10:38:06.002Z,14.05
2018-08-31T10:40:35.246Z,10.68
2018-08-31T10:43:06.172Z,10.20
2018-08-31T10:45:48.228Z,10.70
2018-08-31T10:48:29.653Z,10.37
2018-08-31T10:50:58.259Z,10.43
2018-08-31T10:53:26.979Z,10.10
2018-08-31T10:57:24.790Z,11.45
2018-08-31T10:59:53.920Z,11.43
2018-08-31T11:02:22.575Z,11.40
2018-08-31T11:04:52.998Z,11.50
2018-08-31T11:07:21.610Z,11.40
2018-08-31T11:09:55.068Z,11.53
2018-08-31T11:12:23.822Z,10.72
2018-08-31T11:14:54.778Z,10.93
2018-08-31T11:17:23.436Z,10.88
2018-08-31T11:19:53.316Z,11.10
2018-08-31T11:22:22.106Z,10.58
2018-08-31T11:24:52.782Z,10.72
2018-08-31T11:27:21.580Z,10.15
2018-08-31T11:29:50.213Z,9.73
2018-08-31T11:32:18.854Z,11.90
2018-08-31T11:34:47.647Z,12.80
2018-08-31T11:37:19.206Z,10.28
2018-08-31T11:39:52.362Z,11.10
2018-08-31T11:42:25.750Z,9.25
2018-08-31T11:44:56.546Z,9.43
2018-08-31T11:47:25.167Z,10.10
2018-08-31T11:49:53.969Z,11.40
2018-08-31T11:52:23.090Z,10.28
2018-08-31T11:54:53.237Z,9.03
2018-08-31T11:57:23.444Z,9.88
2018-08-31T11:59:55.044Z,9.13
2018-08-31T12:02:24.449Z,8.50
2018-08-31T12:04:55.330Z,8.58
2018-08-31T12:07:26.260Z,9.25
2018-08-31T12:09:55.109Z,9.65
2018-08-31T12:12:34.064Z,9.50
2018-08-31T12:15:08.287Z,9.55
2018-08-31T12:17:37.924Z,10.53
2018-08-31T12:20:14.635Z,9.38
2018-08-31T12:22:43.328Z,15.30
2018-08-31T12:25:13.240Z,11.83
2018-08-31T12:27:44.592Z,16.30
2018-08-31T12:30:15.297Z,9.73
2018-08-31T12:32:44.018Z,9.25
2018-08-31T12:35:16.561Z,9.17
2018-08-31T12:37:46.094Z,10.43
2018-08-31T12:40:14.704Z,8.45
2018-08-31T12:42:45.600Z,17.37
2018-08-31T12:45:14.338Z,8.10
2018-08-31T12:47:42.999Z,10.30
2018-08-31T12:50:12.884Z,10.20
2018-08-31T12:52:46.188Z,8.77
2018-08-31T12:55:16.483Z,8.80
2018-08-31T12:57:51.288Z,9.10
2018-08-31T13:00:30.814Z,8.90
2018-08-31T13:03:05.380Z,8.85
2018-08-31T13:05:34.773Z,7.80
2018-08-31T13:08:05.208Z,8.20
2018-08-31T13:10:42.684Z,9.40
2018-08-31T13:13:11.441Z,11.43
2018-08-31T13:15:41.617Z,9.03
2018-08-31T13:18:13.496Z,8.90
2018-08-31T13:20:45.036Z,8.83
2018-08-31T13:23:20.551Z,10.50
2018-08-31T13:25:51.884Z,9.33
2018-08-31T13:28:23.077Z,7.97
2018-08-31T13:30:58.904Z,8.60
2018-08-31T13:33:27.572Z,8.38
2018-08-31T13:35:57.766Z,7.87
2018-08-31T13:38:27.154Z,8.60
2018-08-31T13:40:56.176Z,9.68
2018-08-31T13:43:26.759Z,8.35
2018-08-31T13:45:55.715Z,8.58
2018-08-31T13:48:26.580Z,8.50
2018-08-31T13:50:55.284Z,8.80
2018-08-31T13:53:24.154Z,9.15
2018-08-31T13:55:52.878Z,9.90
2018-08-31T13:58:27.296Z,8.70
2018-08-31T14:00:56.776Z,8.55
2018-08-31T14:03:25.328Z,8.08
2018-08-31T14:05:56.038Z,11.63
2018-08-31T14:08:24.761Z,8.78
2018-08-31T14:10:54.080Z,8.48
2018-08-31T14:13:22.848Z,8.57
2018-08-31T14:15:51.721Z,8.58
2018-08-31T14:18:22.267Z,9.17
2018-08-31T14:20:51.016Z,9.15
2018-08-31T14:23:36.038Z,8.88
2018-08-31T14:28:42.728Z,8.80
2018-08-31T14:31:14.149Z,8.80
2018-08-31T14:33:44.014Z,9.83
2018-08-31T14:36:15.082Z,9.25
2018-08-31T14:38:44.014Z,8.93
2018-08-31T14:41:13.618Z,8.95
2018-08-31T14:43:42.271Z,8.63
2018-08-31T14:46:11.917Z,8.88
2018-08-31T14:48:40.667Z,8.93
2018-08-31T14:51:12.945Z,8.63
2018-08-31T14:53:45.252Z,8.90
2018-08-31T14:56:14.265Z,9.43
2018-08-31T14:58:43.802Z,9.60
2018-08-31T15:01:13.081Z,9.63
2018-08-31T15:03:44.795Z,9.97
2018-08-31T15:06:17.332Z,9.60
2018-08-31T15:08:51.326Z,9.20
2018-08-31T15:11:22.608Z,8.50
2018-08-31T15:13:51.264Z,8.60
2018-08-31T15:16:19.890Z,8.70
2018-08-31T15:18:51.820Z,9.43
2018-08-31T15:21:20.755Z,9.47
2018-08-31T15:23:49.570Z,8.90
2018-08-31T15:26:24.384Z,8.98
2018-08-31T15:28:56.254Z,8.68
2018-08-31T15:31:27.626Z,9.60
2018-08-31T15:33:56.654Z,9.38
2018-08-31T15:36:25.447Z,8.88
2018-08-31T15:38:54.069Z,9.47
2018-08-31T15:41:23.341Z,9.15
2018-08-31T15:43:51.995Z,9.40
2018-08-31T15:46:24.549Z,9.23
2018-08-31T15:48:53.440Z,9.53
2018-08-31T15:51:22.044Z,8.45
2018-08-31T15:54:00.279Z,9.73
2018-08-31T15:56:30.318Z,9.23
2018-08-31T15:59:00.628Z,9.15
2018-08-31T16:01:29.557Z,9.40
2018-08-31T16:03:58.469Z,9.53
2018-08-31T16:06:32.543Z,10.05
2018-08-31T16:09:01.308Z,9.35
2018-08-31T16:11:37.120Z,10.35
2018-08-31T16:14:17.297Z,9.83
2018-08-31T16:16:48.898Z,10.08
2018-08-31T16:20:47.820Z,9.73
2018-08-31T16:23:20.372Z,9.70
2018-08-31T16:25:52.626Z,10.03
2018-08-31T16:28:25.200Z,10.45
2018-08-31T16:30:54.086Z,10.00
2018-08-31T16:33:28.942Z,11.15
2018-08-31T16:35:59.931Z,10.00
2018-08-31T16:38:29.865Z,11.20
2018-08-31T16:41:00.109Z,10.60
2018-08-31T16:43:29.519Z,10.68
2018-08-31T16:45:58.823Z,11.20
2018-08-31T16:48:28.084Z,10.20
2018-08-31T16:51:00.993Z,9.87
2018-08-31T16:53:33.584Z,9.68
2018-08-31T16:58:39.234Z,11.12
2018-08-31T17:01:08.563Z,11.00
2018-08-31T17:03:37.300Z,10.48
2018-08-31T17:06:17.016Z,10.77
2018-08-31T17:08:49.307Z,12.65
2018-08-31T17:11:19.166Z,12.03
2018-08-31T17:13:52.040Z,11.97
2018-08-31T17:16:20.769Z,12.10
2018-08-31T17:20:20.958Z,12.60
2018-08-31T17:25:28.872Z,13.95
2018-08-31T17:28:09.320Z,12.75
2018-08-31T17:30:38.135Z,12.93
2018-08-31T17:33:20.667Z,12.65
2018-08-31T17:35:54.572Z,13.70
2018-08-31T17:38:28.714Z,12.90
2018-08-31T17:40:57.445Z,12.20
2018-08-31T17:43:30.421Z,16.07
2018-08-31T17:46:09.642Z,13.95
2018-08-31T17:48:39.268Z,13.90
2018-08-31T17:51:11.272Z,12.20
2018-08-31T17:53:41.008Z,12.97
2018-08-31T17:56:10.049Z,17.75
2018-08-31T17:58:43.058Z,15.40
2018-08-31T18:01:11.889Z,13.55
2018-08-31T18:03:40.907Z,12.77
2018-08-31T18:06:09.943Z,15.15
2018-08-31T18:08:39.463Z,14.45
2018-08-31T18:11:08.659Z,12.58
2018-08-31T18:13:37.377Z,20.25
2018-08-31T18:16:13.991Z,15.80
2018-08-31T18:18:53.555Z,13.45
2018-08-31T18:21:31.305Z,14.00
2018-08-31T18:24:02.254Z,15.55
2018-08-31T18:26:35.285Z,13.10
2018-08-31T18:29:06.014Z,22.37
2018-08-31T18:31:35.019Z,21.90
2018-08-31T18:34:06.813Z,20.75
2018-08-31T18:36:38.940Z,12.63
2018-08-31T18:40:39.051Z,11.95
2018-08-31T18:43:08.647Z,11.53
2018-08-31T18:45:39.931Z,11.10
2018-08-31T18:48:11.826Z,12.18
2018-08-31T18:50:41.747Z,12.82
2018-08-31T18:53:14.527Z,17.07
2018-08-31T18:55:43.587Z,12.45
2018-08-31T18:58:12.379Z,12.25
2018-08-31T19:00:42.148Z,11.77
2018-08-31T19:03:14.010Z,12.73
2018-08-31T19:05:45.034Z,13.20
2018-08-31T19:08:18.099Z,13.43
2018-08-31T19:10:47.031Z,15.63
2018-08-31T19:13:15.983Z,15.13
2018-08-31T19:15:44.993Z,14.38
2018-08-31T19:18:15.280Z,17.52
2018-08-31T19:20:44.544Z,13.05
2018-08-31T19:23:17.232Z,12.57
2018-08-31T19:25:46.275Z,13.98
2018-08-31T19:28:15.086Z,12.85
2018-08-31T19:30:43.960Z,12.95
2018-08-31T19:33:17.130Z,13.10
2018-08-31T19:35:46.154Z,14.78
2018-08-31T19:38:17.928Z,12.95
2018-08-31T19:40:46.711Z,13.32
2018-08-31T19:43:18.712Z,14.65
2018-08-31T19:45:54.005Z,12.87
2018-08-31T19:48:26.720Z,13.75
2018-08-31T19:50:55.728Z,13.43
2018-08-31T19:53:24.419Z,17.90
2018-08-31T19:57:23.438Z,24.25
2018-08-31T19:59:52.122Z,19.20
2018-08-31T20:02:21.052Z,25.08
2018-08-31T20:04:50.146Z,14.68
2018-08-31T20:07:25.463Z,13.55
2018-08-31T20:09:54.487Z,18.65
2018-08-31T20:12:23.445Z,38.15
2018-08-31T20:14:52.359Z,16.87
2018-08-31T20:17:21.302Z,12.90
2018-08-31T20:19:50.207Z,14.45
2018-08-31T20:22:26.150Z,12.93
2018-08-31T20:24:55.006Z,14.23
2018-08-31T20:27:23.823Z,12.23
2018-08-31T20:29:55.292Z,14.25
2018-08-31T20:32:25.231Z,13.80
2018-08-31T20:34:56.440Z,19.05
2018-08-31T20:37:28.378Z,15.07
2018-08-31T20:39:57.232Z,14.05
2018-08-31T20:42:28.132Z,13.58
2018-08-31T20:45:00.214Z,13.58
2018-08-31T20:47:31.622Z,12.55
2018-08-31T20:50:00.378Z,12.37
2018-08-31T20:52:29.095Z,11.93
2018-08-31T20:55:16.639Z,11.60
2018-08-31T20:57:57.586Z,11.65
2018-08-31T21:00:26.781Z,12.93
2018-08-31T21:02:57.814Z,11.53
2018-08-31T21:05:34.906Z,11.83
2018-08-31T21:08:05.848Z,11.93
2018-08-31T21:10:35.105Z,11.18
2018-08-31T21:13:06.607Z,11.20
2018-08-31T21:15:36.714Z,11.43
2018-08-31T21:18:07.289Z,11.43
2018-08-31T21:20:36.721Z,11.50
2018-08-31T21:23:11.037Z,12.05
2018-08-31T21:25:40.714Z,10.58
2018-08-31T21:28:12.982Z,11.48
2018-08-31T21:30:45.287Z,10.47
2018-08-31T21:33:14.119Z,10.55
2018-08-31T21:35:42.922Z,9.70
2018-08-31T21:38:14.145Z,10.08
2018-08-31T21:40:42.855Z,9.55
2018-08-31T21:43:14.556Z,9.40
2018-08-31T21:45:43.402Z,10.10
2018-08-31T21:48:12.170Z,9.63
2018-08-31T21:50:42.336Z,9.45
2018-08-31T21:53:13.549Z,9.53
2018-08-31T21:55:42.434Z,9.58
2018-08-31T21:58:13.154Z,9.60
2018-08-31T22:00:44.787Z,9.43
2018-08-31T22:03:13.911Z,9.33
2018-08-31T22:05:47.622Z,9.58
2018-08-31T22:08:17.773Z,9.23
2018-08-31T22:10:47.030Z,9.05
2018-08-31T22:13:16.564Z,9.13
2018-08-31T22:15:45.638Z,9.03
2018-08-31T22:18:16.943Z,8.97
2018-08-31T22:20:45.798Z,8.98
2018-08-31T22:23:14.486Z,8.93
2018-08-31T22:25:43.229Z,8.98
2018-08-31T22:28:11.995Z,8.33
2018-08-31T22:30:40.609Z,8.68
2018-08-31T22:33:09.268Z,8.68
2018-08-31T22:35:38.045Z,8.43
2018-08-31T22:38:07.282Z,8.10
2018-08-31T22:40:35.979Z,7.85
2018-08-31T22:43:07.988Z,7.65
2018-08-31T22:45:36.860Z,8.35
2018-08-31T22:48:09.622Z,8.98
2018-08-31T22:50:42.557Z,8.08
2018-08-31T22:53:12.681Z,8.43
2018-08-31T22:55:43.875Z,8.33
2018-08-31T22:58:13.004Z,8.75
2018-08-31T23:00:42.631Z,7.80
2018-08-31T23:03:11.690Z,7.67
2018-08-31T23:05:40.686Z,11.10
2018-08-31T23:08:09.976Z,8.40
2018-08-31T23:10:40.681Z,8.30
2018-08-31T23:13:09.873Z,7.60
2018-08-31T23:15:38.824Z,8.33
2018-08-31T23:18:09.388Z,7.53
2018-08-31T23:20:39.951Z,7.53
2018-08-31T23:23:15.196Z,7.60
2018-08-31T23:25:50.815Z,7.13
2018-08-31T23:28:20.732Z,7.58
2018-08-31T23:30:49.387Z,7.30
2018-08-31T23:33:19.561Z,7.03
2018-08-31T23:35:51.304Z,6.87
2018-08-31T23:38:20.110Z,7.28
2018-08-31T23:40:48.830Z,6.70
2018-08-31T23:43:17.730Z,6.90
2018-08-31T23:45:46.663Z,7.20
2018-08-31T23:48:15.594Z,6.23
2018-08-31T23:50:45.127Z,6.50
2018-08-31T23:53:14.196Z,6.47
2018-08-31T23:55:42.879Z,6.80
2018-08-31T23:58:14.822Z,6.73
